Time;durP1;ratioP1;P1;durP2;ratioP2;P2;SDS_P1;SDS_P2;PMS_P1;PMS_P2;Temp;Humidity;BMP_temperature;BMP_pressure;BME280_temperature;BME280_humidity;BME280_pressure;Samples;Min_cycle;Max_cycle;Signal;HPM_P1;HPM_P2
2022/03/20 00:00:14;;;;;;;8.68;5.60;;;6.00;99.90;;;;;;4960087;28;20037;-60
2022/03/20 00:02:41;;;;;;;11.02;5.80;;;5.90;99.90;;;;;;4992975;28;20037;-59
2022/03/20 00:05:10;;;;;;;9.57;5.80;;;5.90;99.90;;;;;;5002443;28;20038;-59
2022/03/20 00:07:38;;;;;;;8.43;5.05;;;5.90;99.90;;;;;;4978282;28;20045;-58
2022/03/20 00:10:06;;;;;;;10.15;5.32;;;5.90;99.90;;;;;;4976698;28;20034;-60
2022/03/20 00:12:32;;;;;;;10.82;5.53;;;5.80;99.90;;;;;;4992564;28;20033;-60
2022/03/20 00:14:58;;;;;;;10.88;6.32;;;5.80;99.90;;;;;;4956346;28;20042;-60
2022/03/20 00:17:24;;;;;;;7.18;5.43;;;5.80;99.90;;;;;;4990845;28;20414;-61
2022/03/20 00:19:50;;;;;;;9.50;5.80;;;5.80;99.90;;;;;;4992156;28;20041;-60
2022/03/20 00:22:16;;;;;;;13.93;5.90;;;5.80;99.90;;;;;;4993966;28;20505;-59
2022/03/20 00:24:44;;;;;;;12.55;5.88;;;5.70;99.90;;;;;;4995678;28;20164;-59
2022/03/20 00:27:12;;;;;;;11.48;6.38;;;5.70;99.90;;;;;;4994368;28;20069;-59
2022/03/20 00:29:39;;;;;;;12.88;6.57;;;5.70;99.90;;;;;;4991738;28;20033;-59
2022/03/20 00:32:07;;;;;;;9.18;5.80;;;5.70;99.90;;;;;;4976837;28;20072;-59
2022/03/20 00:34:33;;;;;;;10.55;5.75;;;5.60;99.90;;;;;;4974562;28;20034;-59
2022/03/20 00:36:58;;;;;;;10.00;6.15;;;5.60;99.90;;;;;;4991665;28;20041;-59
2022/03/20 00:39:24;;;;;;;11.75;6.22;;;5.60;99.90;;;;;;4974898;28;20116;-59
2022/03/20 00:41:50;;;;;;;9.68;6.22;;;5.60;99.90;;;;;;4980257;28;20045;-59
2022/03/20 00:44:16;;;;;;;10.23;6.00;;;5.50;99.90;;;;;;4969589;28;20038;-58
2022/03/20 00:46:42;;;;;;;12.65;6.75;;;5.50;99.90;;;;;;4956664;28;20313;-58
2022/03/20 00:49:11;;;;;;;10.70;6.65;;;5.50;99.90;;;;;;4984107;28;20038;-59
2022/03/20 00:51:36;;;;;;;11.48;6.38;;;5.50;99.90;;;;;;4982501;28;20052;-59
2022/03/20 00:54:02;;;;;;;11.02;6.15;;;5.50;99.90;;;;;;4969444;28;20513;-58
2022/03/20 00:56:28;;;;;;;14.68;6.93;;;5.40;99.90;;;;;;4968413;28;20049;-59
2022/03/20 00:58:54;;;;;;;10.32;6.40;;;5.40;99.90;;;;;;4985408;28;20225;-59
2022/03/20 01:01:20;;;;;;;10.13;6.65;;;5.30;99.90;;;;;;4963429;28;20077;-60
2022/03/20 01:03:45;;;;;;;12.43;6.70;;;5.20;99.90;;;;;;4984963;28;20065;-59
2022/03/20 01:06:12;;;;;;;9.45;5.80;;;5.30;99.90;;;;;;4980989;28;20042;-59
2022/03/20 01:08:38;;;;;;;10.30;6.43;;;5.20;99.90;;;;;;4983187;28;20045;-60
2022/03/20 01:11:07;;;;;;;9.13;6.60;;;5.10;99.90;;;;;;4981231;28;20033;-59
2022/03/20 01:13:34;;;;;;;10.43;5.90;;;5.10;99.90;;;;;;4982671;28;20311;-59
2022/03/20 01:16:00;;;;;;;11.00;6.32;;;5.10;99.90;;;;;;4946023;28;20061;-59
2022/03/20 01:18:26;;;;;;;9.90;5.95;;;5.10;99.90;;;;;;4981566;28;20065;-59
2022/03/20 01:20:53;;;;;;;10.50;6.47;;;5.10;99.90;;;;;;4971858;28;20045;-59
2022/03/20 01:23:22;;;;;;;13.13;6.80;;;5.00;99.90;;;;;;4989830;28;20044;-59
2022/03/20 01:25:49;;;;;;;12.82;6.57;;;4.90;99.90;;;;;;4973402;28;20393;-59
2022/03/20 01:28:17;;;;;;;12.90;6.13;;;4.90;99.90;;;;;;4992511;28;20120;-59
2022/03/20 01:30:44;;;;;;;10.70;6.78;;;4.80;99.90;;;;;;5012946;22;20052;-56
2022/03/20 01:33:10;;;;;;;13.32;6.63;;;4.80;99.90;;;;;;4990856;28;20058;-55
2022/03/20 01:35:36;;;;;;;12.20;7.13;;;4.80;99.90;;;;;;4974782;28;20054;-57
2022/03/20 01:38:03;;;;;;;12.43;7.18;;;4.70;99.90;;;;;;4986987;28;20042;-55
2022/03/20 01:40:28;;;;;;;14.88;7.45;;;4.70;99.90;;;;;;4976195;28;20133;-55
2022/03/20 01:42:54;;;;;;;9.10;6.45;;;4.70;99.90;;;;;;4982433;28;20407;-57
2022/03/20 01:45:22;;;;;;;10.52;6.03;;;4.70;99.90;;;;;;4992116;28;20046;-56
2022/03/20 01:47:49;;;;;;;10.95;6.63;;;4.70;99.90;;;;;;5008630;28;20510;-56
2022/03/20 01:50:17;;;;;;;11.18;6.30;;;4.70;99.90;;;;;;4998626;28;20100;-56
2022/03/20 01:52:47;;;;;;;10.85;6.93;;;4.70;99.90;;;;;;4999220;28;20199;-56
2022/03/20 01:55:15;;;;;;;10.02;6.10;;;4.70;99.90;;;;;;4995691;28;20288;-55
2022/03/20 01:57:42;;;;;;;12.50;6.88;;;4.60;99.90;;;;;;4977672;28;20492;-57
2022/03/20 02:00:10;;;;;;;10.18;7.25;;;4.60;99.90;;;;;;4999515;28;20965;-56
2022/03/20 02:02:36;;;;;;;12.85;7.97;;;4.60;99.90;;;;;;4977697;28;20092;-56
2022/03/20 02:05:04;;;;;;;12.98;6.38;;;4.60;99.90;;;;;;4992449;28;20498;-55
2022/03/20 02:07:34;;;;;;;12.13;7.35;;;4.50;99.90;;;;;;4992433;28;20042;-55
2022/03/20 02:10:01;;;;;;;12.57;6.63;;;4.50;99.90;;;;;;4974498;28;20054;-56
2022/03/20 02:12:28;;;;;;;11.43;7.43;;;4.50;99.90;;;;;;5010781;28;20065;-54
2022/03/20 02:14:56;;;;;;;12.63;7.28;;;4.40;99.90;;;;;;4975436;28;20105;-53
2022/03/20 02:17:22;;;;;;;11.23;7.00;;;4.50;99.90;;;;;;4993334;28;20033;-55
2022/03/20 02:19:48;;;;;;;17.77;7.97;;;4.50;99.90;;;;;;5009215;28;20467;-57
2022/03/20 02:22:13;;;;;;;11.00;7.03;;;4.50;99.90;;;;;;4991346;28;20052;-56
2022/03/20 02:24:41;;;;;;;11.23;6.60;;;4.40;99.90;;;;;;4991935;28;20049;-53
2022/03/20 02:27:18;;;;;;;13.60;7.45;;;4.40;99.90;;;;;;4992224;28;20139;-56
2022/03/20 02:29:56;;;;;;;12.57;7.15;;;4.30;99.90;;;;;;5004224;28;20052;-56
2022/03/20 02:32:23;;;;;;;14.85;7.57;;;4.30;99.90;;;;;;5008051;28;20058;-55
2022/03/20 02:34:50;;;;;;;15.02;6.93;;;4.30;99.90;;;;;;4993654;28;20049;-55
2022/03/20 02:37:21;;;;;;;16.05;8.05;;;4.30;99.90;;;;;;4989816;28;20050;-57
2022/03/20 02:39:48;;;;;;;16.63;8.93;;;4.30;99.90;;;;;;4990515;28;20041;-57
2022/03/20 02:42:15;;;;;;;16.38;8.48;;;4.30;99.90;;;;;;4974226;28;20387;-55
2022/03/20 02:45:06;;;;;;;15.57;8.05;;;4.30;99.90;;;;;;4978386;28;20492;-54
2022/03/20 02:47:45;;;;;;;13.63;8.25;;;4.20;99.90;;;;;;4992435;28;21092;-56
2022/03/20 02:50:37;;;;;;;17.27;8.50;;;4.20;99.90;;;;;;5003130;28;20105;-56
2022/03/20 02:53:11;;;;;;;15.85;8.05;;;4.20;99.90;;;;;;4989234;28;20042;-56
2022/03/20 02:55:44;;;;;;;18.30;8.75;;;4.20;99.90;;;;;;5011038;28;20073;-57
2022/03/20 02:58:13;;;;;;;16.83;8.60;;;4.10;99.90;;;;;;4977472;28;20041;-55
2022/03/20 03:00:40;;;;;;;13.73;7.85;;;4.10;99.90;;;;;;4972949;28;20731;-54
2022/03/20 03:03:10;;;;;;;15.75;8.70;;;4.10;99.90;;;;;;4994139;28;20050;-53
2022/03/20 03:05:38;;;;;;;18.83;9.50;;;4.10;99.90;;;;;;4980969;28;20518;-53
2022/03/20 03:10:57;;;;;;;18.38;10.02;;;4.50;99.90;;;;;;5008047;28;20081;-56
2022/03/20 03:13:27;;;;;;;;;;;4.10;99.90;;;;;;4994953;28;20053;-55
2022/03/20 03:15:55;;;;;;;13.68;8.23;;;4.00;99.90;;;;;;4994430;28;19936;-55
2022/03/20 03:18:22;;;;;;;15.85;9.13;;;4.00;99.90;;;;;;4989434;28;20108;-53
2022/03/20 03:20:48;;;;;;;15.27;9.93;;;3.90;99.90;;;;;;4994817;28;20041;-55
2022/03/20 03:23:15;;;;;;;14.35;9.20;;;4.00;99.90;;;;;;4992111;28;20057;-55
2022/03/20 03:25:41;;;;;;;14.35;9.35;;;3.90;99.90;;;;;;4988281;28;20050;-54
2022/03/20 03:28:09;;;;;;;15.05;9.13;;;3.90;99.90;;;;;;4993003;28;20257;-53
2022/03/20 03:30:43;;;;;;;19.45;10.02;;;3.80;99.90;;;;;;4998526;28;20042;-56
2022/03/20 03:33:10;;;;;;;16.35;10.18;;;3.80;99.90;;;;;;4992811;28;20191;-54
2022/03/20 03:35:43;;;;;;;18.48;11.60;;;3.90;99.90;;;;;;4994130;28;20038;-54
2022/03/20 03:38:15;;;;;;;19.63;9.00;;;3.80;99.90;;;;;;4992219;28;20045;-55
2022/03/20 03:40:44;;;;;;;17.95;10.27;;;3.80;99.90;;;;;;4997315;28;20045;-56
2022/03/20 03:43:10;;;;;;;20.90;11.25;;;3.80;99.90;;;;;;4996263;28;20107;-56
2022/03/20 03:45:39;;;;;;;16.75;10.13;;;3.70;99.90;;;;;;4998633;28;20327;-52
2022/03/20 03:48:06;;;;;;;17.17;10.65;;;3.70;99.90;;;;;;4995444;28;20041;-55
2022/03/20 03:50:32;;;;;;;18.20;10.32;;;3.70;99.90;;;;;;4978151;28;20308;-52
2022/03/20 03:52:58;;;;;;;14.98;10.52;;;3.70;99.90;;;;;;4996622;28;20054;-53
2022/03/20 03:55:24;;;;;;;19.00;10.55;;;3.70;99.90;;;;;;4981654;28;20088;-55
2022/03/20 03:57:51;;;;;;;16.98;11.55;;;3.70;99.90;;;;;;4992917;28;20045;-57
2022/03/20 04:00:18;;;;;;;18.27;12.15;;;3.60;99.90;;;;;;4994623;28;20050;-54
2022/03/20 04:02:44;;;;;;;16.90;11.48;;;3.60;99.90;;;;;;4995536;28;20049;-56
2022/03/20 04:05:10;;;;;;;17.65;11.50;;;3.60;99.90;;;;;;4982770;28;20050;-56
2022/03/20 04:07:36;;;;;;;23.15;11.50;;;3.60;99.90;;;;;;4997638;28;20064;-53
2022/03/20 04:10:05;;;;;;;18.98;11.02;;;3.60;99.90;;;;;;4997679;28;20279;-56
2022/03/20 04:12:31;;;;;;;16.77;10.95;;;3.60;99.90;;;;;;4989679;28;20042;-54
2022/03/20 04:15:02;;;;;;;21.08;11.60;;;3.60;99.90;;;;;;4994431;28;20479;-56
2022/03/20 04:17:29;;;;;;;20.88;12.25;;;3.60;99.90;;;;;;4983356;28;20089;-57
2022/03/20 04:19:54;;;;;;;17.30;11.60;;;3.60;99.90;;;;;;4998564;28;20100;-55
2022/03/20 04:22:20;;;;;;;20.45;11.93;;;3.60;99.90;;;;;;4997354;28;20049;-53
2022/03/20 04:24:46;;;;;;;18.50;12.00;;;3.60;99.90;;;;;;4999828;28;20372;-56
2022/03/20 04:27:13;;;;;;;21.88;12.40;;;3.60;99.90;;;;;;4993983;28;20041;-52
2022/03/20 04:29:39;;;;;;;20.70;12.13;;;3.60;99.90;;;;;;4996166;28;20046;-56
2022/03/20 04:32:06;;;;;;;19.55;13.13;;;3.60;99.90;;;;;;4993827;28;20407;-53
2022/03/20 04:34:31;;;;;;;23.27;12.90;;;3.60;99.90;;;;;;4992188;28;20045;-56
2022/03/20 04:36:57;;;;;;;17.40;11.82;;;3.50;99.90;;;;;;4998302;28;20108;-52
2022/03/20 04:39:24;;;;;;;20.42;11.88;;;3.60;99.90;;;;;;4998730;28;20046;-53
2022/03/20 04:41:50;;;;;;;19.83;12.45;;;3.60;99.90;;;;;;4994537;28;20549;-56
2022/03/20 04:44:16;;;;;;;18.88;12.20;;;3.50;99.90;;;;;;4970143;28;20309;-55
2022/03/20 04:46:42;;;;;;;23.40;12.93;;;3.50;99.90;;;;;;4966297;28;20046;-54
2022/03/20 05:00:06;;;;;;;24.58;13.75;;;3.50;99.90;;;;;;4995612;28;20046;-54
2022/03/20 05:02:31;;;;;;;21.65;14.00;;;3.40;99.90;;;;;;4996984;28;20410;-55
2022/03/20 05:04:57;;;;;;;19.95;13.38;;;3.40;99.90;;;;;;4979474;28;20052;-53
2022/03/20 05:07:23;;;;;;;19.05;12.95;;;3.40;99.90;;;;;;4995452;28;20112;-53
2022/03/20 05:15:18;;;;;;;21.38;11.95;;;3.40;99.90;;;;;;4984384;28;19929;-52
2022/03/20 05:17:43;;;;;;;20.27;13.50;;;3.40;99.90;;;;;;4994710;28;20087;-54
2022/03/20 05:20:10;;;;;;;19.75;12.90;;;3.40;99.90;;;;;;4972872;28;20047;-52
2022/03/20 05:22:40;;;;;;;21.50;13.20;;;3.40;99.90;;;;;;4996114;28;20141;-57
2022/03/20 05:25:12;;;;;;;22.88;13.80;;;3.40;99.90;;;;;;4994843;28;20100;-56
2022/03/20 05:27:38;;;;;;;19.27;12.65;;;3.30;99.90;;;;;;4970010;28;20573;-56
2022/03/20 05:30:07;;;;;;;21.48;13.57;;;3.30;99.90;;;;;;4983496;28;20096;-55
2022/03/20 05:32:34;;;;;;;21.50;13.95;;;3.30;99.90;;;;;;4992413;28;20034;-55
2022/03/20 05:35:00;;;;;;;21.25;13.30;;;3.30;99.90;;;;;;4976032;28;20057;-57
2022/03/20 05:37:26;;;;;;;22.70;14.65;;;3.30;99.90;;;;;;4959429;28;20045;-53
2022/03/20 05:39:52;;;;;;;24.58;14.23;;;3.20;99.90;;;;;;4971686;28;20046;-53
2022/03/20 05:42:17;;;;;;;23.45;14.20;;;3.20;99.90;;;;;;5007316;28;20041;-55
2022/03/20 05:44:46;;;;;;;21.88;14.15;;;3.20;99.90;;;;;;4999318;28;20125;-55
2022/03/20 05:47:12;;;;;;;26.80;13.68;;;3.20;99.90;;;;;;5008840;28;20061;-55
2022/03/20 05:49:38;;;;;;;22.88;14.88;;;3.20;99.90;;;;;;4988773;28;20047;-54
2022/03/20 05:52:06;;;;;;;24.23;14.80;;;3.20;99.90;;;;;;4995866;28;20044;-56
2022/03/20 05:54:31;;;;;;;22.45;14.27;;;3.20;99.90;;;;;;4979715;28;20531;-56
2022/03/20 05:59:41;;;;;;;;;;;3.20;99.90;;;;;;4989040;28;20042;-57
2022/03/20 06:02:10;;;;;;;23.23;14.55;;;3.20;99.90;;;;;;4984560;28;20315;-61
2022/03/20 06:04:38;;;;;;;21.75;15.55;;;3.20;99.90;;;;;;4977383;28;20455;-57
2022/03/20 06:07:05;;;;;;;28.08;15.35;;;3.20;99.90;;;;;;4996253;28;20375;-55
2022/03/20 06:09:31;;;;;;;19.52;13.48;;;3.20;99.90;;;;;;4993223;28;20050;-55
2022/03/20 06:11:56;;;;;;;24.08;15.30;;;3.20;99.90;;;;;;4978126;28;20045;-56
2022/03/20 06:14:23;;;;;;;23.63;14.52;;;3.20;99.90;;;;;;4992338;28;20041;-55
2022/03/20 06:16:49;;;;;;;23.60;15.82;;;3.20;99.90;;;;;;4981773;28;20052;-59
2022/03/20 06:19:16;;;;;;;22.33;15.25;;;3.20;99.90;;;;;;4991298;28;20105;-56
2022/03/20 06:21:43;;;;;;;23.08;15.52;;;3.20;99.90;;;;;;4987010;28;20219;-54
2022/03/20 06:24:09;;;;;;;23.90;16.23;;;3.20;99.90;;;;;;4982673;28;20789;-53
2022/03/20 06:26:36;;;;;;;31.35;16.45;;;3.20;99.90;;;;;;4984405;28;20048;-58
2022/03/20 06:29:06;;;;;;;25.50;15.35;;;3.30;99.90;;;;;;4988497;28;20045;-58
2022/03/20 06:31:33;;;;;;;23.10;14.90;;;3.30;99.90;;;;;;4987882;28;20106;-57
2022/03/20 06:33:59;;;;;;;23.77;15.15;;;3.30;99.90;;;;;;4987507;28;20118;-56
2022/03/20 06:36:26;;;;;;;24.52;15.85;;;3.30;99.90;;;;;;4986199;28;20082;-54
2022/03/20 06:38:52;;;;;;;23.40;15.63;;;3.40;99.90;;;;;;4989163;28;20061;-55
2022/03/20 06:41:18;;;;;;;25.23;15.02;;;3.40;99.90;;;;;;4992548;28;20481;-55
2022/03/20 06:43:44;;;;;;;22.52;14.95;;;3.40;99.90;;;;;;4971418;28;20033;-62
2022/03/20 06:46:10;;;;;;;23.42;15.02;;;3.40;99.90;;;;;;4987100;28;20299;-56
2022/03/20 06:48:36;;;;;;;25.50;16.17;;;3.50;99.90;;;;;;4998058;28;20056;-56
2022/03/20 06:51:04;;;;;;;24.27;16.02;;;3.50;99.90;;;;;;4989895;28;20390;-55
2022/03/20 06:53:30;;;;;;;25.60;16.27;;;3.60;99.90;;;;;;5002236;28;20061;-57
2022/03/20 06:55:57;;;;;;;24.42;15.13;;;3.70;99.90;;;;;;4971815;28;20438;-54
2022/03/20 06:58:27;;;;;;;25.30;16.25;;;3.70;99.90;;;;;;4989584;28;20333;-60
2022/03/20 07:00:53;;;;;;;22.95;14.73;;;3.70;99.90;;;;;;4985060;28;20045;-55
2022/03/20 07:03:20;;;;;;;25.67;16.27;;;3.80;99.90;;;;;;5002510;28;20153;-56
2022/03/20 07:05:46;;;;;;;24.63;15.13;;;3.90;99.90;;;;;;4983664;28;20050;-57
2022/03/20 07:08:13;;;;;;;25.83;18.00;;;3.90;99.90;;;;;;4992814;28;20500;-57
2022/03/20 07:10:39;;;;;;;27.48;16.20;;;4.00;99.90;;;;;;4970561;28;20414;-55
2022/03/20 07:15:57;;;;;;;23.45;15.57;;;4.10;99.60;;;;;;4998924;28;20291;-54
2022/03/20 07:18:23;;;;;;;24.38;16.52;;;4.10;99.40;;;;;;5009842;28;20433;-55
2022/03/20 07:20:50;;;;;;;21.75;15.35;;;4.20;99.10;;;;;;4984744;28;20046;-57
2022/03/20 07:23:16;;;;;;;24.65;14.48;;;4.20;98.80;;;;;;4975177;28;20042;-60
2022/03/20 07:31:12;;;;;;;25.02;15.70;;;4.30;98.20;;;;;;4994721;28;20335;-59
2022/03/20 07:33:39;;;;;;;23.80;15.73;;;4.30;97.70;;;;;;4992408;28;20068;-55
2022/03/20 07:36:05;;;;;;;25.58;15.55;;;4.40;97.80;;;;;;4960569;28;20045;-55
2022/03/20 07:38:31;;;;;;;21.73;16.35;;;4.40;97.60;;;;;;4989200;28;20041;-52
2022/03/20 07:40:57;;;;;;;24.50;17.02;;;4.50;96.90;;;;;;4991687;28;20748;-54
2022/03/20 07:43:25;;;;;;;22.30;14.95;;;4.50;97.30;;;;;;4959380;28;20048;-59
2022/03/20 07:45:51;;;;;;;23.27;15.82;;;4.60;97.40;;;;;;4996466;28;20053;-57
2022/03/20 07:48:17;;;;;;;27.65;16.42;;;4.70;96.70;;;;;;4987088;28;20050;-55
2022/03/20 07:50:43;;;;;;;26.77;17.77;;;4.70;96.70;;;;;;4992390;28;20165;-55
2022/03/20 07:53:09;;;;;;;21.83;14.73;;;4.80;96.30;;;;;;4990640;28;20636;-56
2022/03/20 07:55:35;;;;;;;23.77;16.05;;;4.90;96.30;;;;;;4990278;28;20050;-56
2022/03/20 07:58:05;;;;;;;23.52;17.02;;;4.90;96.10;;;;;;4972922;28;20038;-57
2022/03/20 08:00:30;;;;;;;28.25;15.82;;;5.00;96.30;;;;;;4949630;28;20555;-57
2022/03/20 08:02:56;;;;;;;23.55;16.13;;;5.00;95.50;;;;;;5001305;28;20098;-56
2022/03/20 08:05:24;;;;;;;22.83;15.80;;;5.00;95.00;;;;;;4996351;28;20042;-56
2022/03/20 08:07:50;;;;;;;21.27;15.23;;;5.10;95.50;;;;;;4999462;28;20046;-57
2022/03/20 08:10:16;;;;;;;25.48;15.35;;;5.10;94.70;;;;;;4995294;28;20042;-55
2022/03/20 08:12:42;;;;;;;25.30;15.68;;;5.20;95.10;;;;;;5001498;28;20380;-59
2022/03/20 08:15:09;;;;;;;23.00;15.80;;;5.30;94.70;;;;;;4992579;28;20052;-62
2022/03/20 08:17:45;;;;;;;23.83;14.88;;;5.40;94.50;;;;;;5007746;28;20057;-56
2022/03/20 08:20:12;;;;;;;23.17;16.70;;;5.40;94.40;;;;;;4996383;28;20046;-57
2022/03/20 08:22:38;;;;;;;28.02;17.33;;;5.60;94.40;;;;;;4990237;28;20145;-54
2022/03/20 08:25:05;;;;;;;22.77;15.65;;;5.70;94.20;;;;;;4996994;28;20702;-61
2022/03/20 08:27:40;;;;;;;24.73;15.85;;;5.70;93.60;;;;;;4992474;28;20095;-58
2022/03/20 08:30:11;;;;;;;26.70;17.00;;;5.70;93.50;;;;;;4969629;28;20060;-54
2022/03/20 08:32:37;;;;;;;24.08;16.25;;;5.80;93.20;;;;;;4990131;28;20526;-55
2022/03/20 08:35:04;;;;;;;24.48;17.33;;;5.80;92.90;;;;;;4987247;28;20197;-53
2022/03/20 08:37:31;;;;;;;24.60;17.13;;;5.90;92.50;;;;;;4964560;28;20175;-62
2022/03/20 08:39:58;;;;;;;28.42;16.90;;;5.90;92.10;;;;;;4986042;28;20515;-56
2022/03/20 08:42:24;;;;;;;24.95;17.45;;;6.00;92.20;;;;;;4989438;28;20055;-57
2022/03/20 08:44:52;;;;;;;25.23;16.17;;;6.00;91.80;;;;;;4988025;28;20049;-57
2022/03/20 08:47:18;;;;;;;23.90;16.25;;;6.10;91.80;;;;;;4989439;28;22565;-55
2022/03/20 08:49:45;;;;;;;28.13;17.67;;;6.20;91.60;;;;;;4994979;28;20571;-54
2022/03/20 08:52:11;;;;;;;26.50;17.35;;;6.20;91.00;;;;;;4987058;28;20059;-60
2022/03/20 08:54:36;;;;;;;25.45;16.98;;;6.40;91.30;;;;;;4986567;28;20380;-59
2022/03/20 08:57:05;;;;;;;27.45;17.60;;;6.40;90.90;;;;;;4989551;28;20049;-56
2022/03/20 08:59:32;;;;;;;25.70;18.55;;;6.50;90.90;;;;;;4990654;28;20084;-53
2022/03/20 09:01:57;;;;;;;28.75;18.92;;;6.50;89.60;;;;;;4987909;28;20045;-54
2022/03/20 09:04:23;;;;;;;26.70;16.92;;;6.50;90.20;;;;;;4975563;28;20104;-54
2022/03/20 09:06:50;;;;;;;29.13;18.88;;;6.60;89.80;;;;;;4988434;28;20042;-61
2022/03/20 09:09:16;;;;;;;27.38;17.45;;;6.70;89.90;;;;;;4991096;28;20111;-56
2022/03/20 09:11:44;;;;;;;24.20;17.20;;;6.70;89.70;;;;;;4991649;28;20069;-56
2022/03/20 09:14:10;;;;;;;28.80;17.92;;;6.80;89.40;;;;;;4989409;28;20141;-55
2022/03/20 09:19:20;;;;;;;29.63;17.77;;;7.00;89.20;;;;;;4988689;28;20289;-57
2022/03/20 09:21:46;;;;;;;29.38;19.63;;;7.10;87.70;;;;;;4974029;28;20042;-57
2022/03/20 09:24:12;;;;;;;32.13;17.52;;;7.20;87.00;;;;;;4990307;28;20477;-52
2022/03/20 09:26:38;;;;;;;27.77;17.88;;;7.20;85.60;;;;;;4988433;28;20089;-57
2022/03/20 09:29:04;;;;;;;27.08;18.25;;;7.40;87.90;;;;;;4977110;28;20418;-55
2022/03/20 09:31:34;;;;;;;23.25;17.80;;;7.50;87.70;;;;;;4992322;28;20172;-56
2022/03/20 09:34:03;;;;;;;26.17;18.33;;;7.60;86.10;;;;;;4980849;28;20053;-57
2022/03/20 09:36:29;;;;;;;26.48;18.40;;;7.50;84.10;;;;;;4970951;28;20046;-58
2022/03/20 09:38:55;;;;;;;25.80;18.90;;;7.60;84.90;;;;;;4975397;28;20041;-52
2022/03/20 09:41:29;;;;;;;26.77;19.02;;;7.80;84.90;;;;;;4988525;28;21460;-55
2022/03/20 09:43:55;;;;;;;25.17;18.25;;;7.90;84.10;;;;;;4988026;28;20414;-62
2022/03/20 09:46:21;;;;;;;26.23;17.83;;;8.00;82.90;;;;;;4974842;28;20085;-59
2022/03/20 09:48:48;;;;;;;26.15;18.27;;;8.10;83.80;;;;;;4993915;28;20435;-57
2022/03/20 09:51:13;;;;;;;28.75;18.85;;;8.30;83.20;;;;;;4999398;28;20064;-57
2022/03/20 09:53:39;;;;;;;27.63;19.23;;;8.30;81.70;;;;;;4998499;28;20402;-56
2022/03/20 09:56:10;;;;;;;28.70;17.88;;;8.40;81.20;;;;;;4995316;28;20046;-52
2022/03/20 09:58:36;;;;;;;27.00;18.95;;;8.40;81.40;;;;;;5001018;28;20042;-60
2022/03/20 10:01:02;;;;;;;26.08;18.67;;;8.60;79.80;;;;;;5004678;28;20041;-57
2022/03/20 10:03:28;;;;;;;27.45;18.00;;;8.60;80.30;;;;;;5010623;28;20034;-56
2022/03/20 10:06:05;;;;;;;26.55;17.85;;;8.60;79.30;;;;;;4989475;28;20435;-57
2022/03/20 10:08:32;;;;;;;26.05;18.92;;;8.60;77.00;;;;;;5008922;28;20038;-56
2022/03/20 10:11:17;;;;;;;26.88;19.05;;;8.50;77.50;;;;;;4998369;28;20033;-62
2022/03/20 10:14:06;;;;;;;25.55;18.98;;;8.60;77.60;;;;;;4981537;28;20099;-55
2022/03/20 10:16:32;;;;;;;29.15;18.50;;;8.90;77.60;;;;;;5007173;28;20136;-53
2022/03/20 10:18:58;;;;;;;28.27;19.08;;;8.90;76.50;;;;;;4975038;28;20066;-61
2022/03/20 10:21:45;;;;;;;29.48;19.63;;;8.90;75.80;;;;;;5006951;28;20045;-55
2022/03/20 10:24:18;;;;;;;24.92;18.48;;;9.00;73.80;;;;;;5005969;28;20050;-55
2022/03/20 10:26:45;;;;;;;24.98;18.83;;;9.10;74.90;;;;;;5001762;28;20113;-60
2022/03/20 10:29:15;;;;;;;29.45;19.90;;;9.10;74.50;;;;;;5004578;28;20064;-60
2022/03/20 10:31:52;;;;;;;26.25;18.50;;;9.10;73.10;;;;;;5002859;28;20154;-56
2022/03/20 10:34:20;;;;;;;28.58;19.45;;;9.20;72.60;;;;;;5006791;28;20461;-55
2022/03/20 10:36:46;;;;;;;27.63;19.20;;;9.20;73.40;;;;;;5019257;28;20050;-57
2022/03/20 10:39:16;;;;;;;30.83;19.65;;;9.30;71.60;;;;;;5004476;28;20042;-62
2022/03/20 10:41:43;;;;;;;25.23;18.85;;;9.40;73.70;;;;;;5012119;28;20041;-55
2022/03/20 10:44:16;;;;;;;31.20;19.90;;;9.40;70.30;;;;;;4997615;28;20038;-53
2022/03/20 10:46:43;;;;;;;29.02;20.13;;;9.30;71.00;;;;;;5010930;28;20252;-55
2022/03/20 10:49:18;;;;;;;27.52;20.27;;;9.40;69.90;;;;;;5002616;28;20038;-57
2022/03/20 10:51:44;;;;;;;27.67;19.70;;;9.50;70.00;;;;;;5000234;28;20434;-53
2022/03/20 10:54:15;;;;;;;28.35;20.27;;;9.60;69.50;;;;;;4976719;28;20042;-58
2022/03/20 10:56:58;;;;;;;30.80;20.13;;;9.70;71.60;;;;;;4994752;28;20049;-56
2022/03/20 10:59:26;;;;;;;29.55;20.00;;;9.80;69.50;;;;;;4992293;28;20050;-61
2022/03/20 11:01:52;;;;;;;27.20;20.00;;;9.80;68.90;;;;;;4998800;28;20853;-55
2022/03/20 11:04:19;;;;;;;28.45;20.20;;;9.80;69.10;;;;;;5009398;28;20037;-56
2022/03/20 11:06:50;;;;;;;28.15;18.50;;;9.90;68.10;;;;;;5013142;28;20124;-58
2022/03/20 11:09:16;;;;;;;29.08;19.48;;;10.00;66.80;;;;;;5001907;28;20049;-54
2022/03/20 11:11:53;;;;;;;27.70;20.67;;;10.10;68.10;;;;;;5002106;28;20045;-55
2022/03/20 11:14:27;;;;;;;27.02;20.00;;;10.10;67.00;;;;;;5001438;28;20042;-56
2022/03/20 11:17:06;;;;;;;28.73;20.60;;;10.10;65.50;;;;;;5008203;28;20396;-57
2022/03/20 11:19:34;;;;;;;27.58;20.27;;;10.10;65.90;;;;;;5006641;28;20050;-55
2022/03/20 11:22:09;;;;;;;25.33;19.35;;;10.20;66.40;;;;;;5002646;28;20038;-60
2022/03/20 11:24:37;;;;;;;28.40;21.05;;;10.40;66.60;;;;;;5008293;28;20111;-57
2022/03/20 11:27:04;;;;;;;30.77;21.13;;;10.30;65.40;;;;;;5007248;28;20069;-56
2022/03/20 11:29:36;;;;;;;28.23;20.50;;;10.40;64.30;;;;;;4984147;28;20100;-55
2022/03/20 11:32:03;;;;;;;27.38;20.75;;;10.30;65.40;;;;;;4997259;28;20045;-55
2022/03/20 11:34:31;;;;;;;28.90;20.38;;;10.60;67.20;;;;;;4958265;28;20026;-59
2022/03/20 11:37:08;;;;;;;29.15;20.35;;;10.80;64.80;;;;;;4996979;28;20491;-54
2022/03/20 11:39:39;;;;;;;27.90;22.02;;;10.90;63.70;;;;;;4994319;28;20405;-52
2022/03/20 11:42:23;;;;;;;27.63;20.60;;;10.80;63.40;;;;;;5003206;28;20499;-56
2022/03/20 11:44:59;;;;;;;29.05;20.83;;;10.90;64.10;;;;;;5004161;28;20244;-53
2022/03/20 11:47:29;;;;;;;32.50;21.73;;;10.90;62.90;;;;;;4992905;28;20124;-54
2022/03/20 11:50:21;;;;;;;28.67;20.38;;;10.80;62.50;;;;;;5004373;28;20850;-60
2022/03/20 11:53:04;;;;;;;26.58;19.50;;;10.80;64.60;;;;;;5014642;28;20077;-55
2022/03/20 11:55:42;;;;;;;31.40;21.92;;;11.10;63.70;;;;;;4994309;28;20052;-53
2022/03/20 11:58:09;;;;;;;28.58;20.83;;;11.50;65.00;;;;;;5001999;28;20050;-59
2022/03/20 12:00:41;;;;;;;27.52;20.58;;;11.80;64.80;;;;;;5007208;28;20436;-54
2022/03/20 12:03:20;;;;;;;29.17;20.80;;;11.80;62.00;;;;;;5003657;28;20108;-57
2022/03/20 12:05:58;;;;;;;30.67;21.60;;;12.00;63.50;;;;;;5005163;28;20506;-56
2022/03/20 12:08:53;;;;;;;27.05;20.20;;;11.70;59.70;;;;;;4995944;28;20117;-55
2022/03/20 12:11:28;;;;;;;33.05;21.60;;;11.70;59.20;;;;;;5003066;28;20111;-53
2022/03/20 12:14:21;;;;;;;31.15;21.80;;;11.50;60.90;;;;;;5006786;28;20084;-58
2022/03/20 12:16:50;;;;;;;30.40;21.73;;;11.60;60.10;;;;;;4997311;28;20049;-56
2022/03/20 12:19:38;;;;;;;29.80;20.23;;;11.70;62.90;;;;;;4999932;28;20653;-58
2022/03/20 12:22:04;;;;;;;29.35;21.52;;;11.90;61.10;;;;;;5002563;28;20042;-54
2022/03/20 12:24:37;;;;;;;28.30;21.67;;;12.00;61.10;;;;;;5028341;28;20041;-57
2022/03/20 12:27:24;;;;;;;29.83;20.73;;;12.10;60.80;;;;;;5010553;28;20041;-57
2022/03/20 12:29:53;;;;;;;28.95;20.98;;;12.20;59.90;;;;;;5022611;28;20049;-58
2022/03/20 12:32:20;;;;;;;27.27;20.98;;;12.20;60.90;;;;;;4999299;28;20517;-55
2022/03/20 12:35:04;;;;;;;32.00;21.92;;;12.10;59.30;;;;;;5000747;28;20112;-57
2022/03/20 12:37:33;;;;;;;28.48;20.63;;;12.00;60.40;;;;;;4997710;28;20298;-60
2022/03/20 12:40:14;;;;;;;31.63;21.98;;;12.10;61.10;;;;;;5007432;28;20061;-56
2022/03/20 12:42:45;;;;;;;29.88;20.90;;;12.30;59.50;;;;;;5002935;28;20049;-56
2022/03/20 12:45:17;;;;;;;31.77;21.90;;;12.50;61.30;;;;;;4986024;28;20050;-56
2022/03/20 12:47:55;;;;;;;29.13;21.40;;;12.60;59.50;;;;;;4991216;28;20066;-58
2022/03/20 12:50:30;;;;;;;28.75;20.45;;;12.50;56.50;;;;;;4997837;28;20092;-55
2022/03/20 12:53:17;;;;;;;26.05;20.60;;;12.10;57.20;;;;;;4988891;28;20507;-56
2022/03/20 12:56:36;;;;;;;28.70;20.60;;;12.00;57.90;;;;;;4994991;28;20491;-56
2022/03/20 12:58:55;;;;;;;28.30;21.02;;;11.70;58.80;;;;;;4997370;28;21838;-59
2022/03/20 13:01:21;;;;;;;28.33;21.27;;;11.70;60.60;;;;;;4985081;28;20061;-55
2022/03/20 13:03:48;;;;;;;31.63;21.67;;;11.80;61.10;;;;;;4994967;28;20355;-59
2022/03/20 13:06:14;;;;;;;30.48;21.58;;;11.70;60.90;;;;;;4984968;28;20045;-57
2022/03/20 13:08:44;;;;;;;37.05;21.63;;;11.60;61.80;;;;;;4996116;28;20042;-56
2022/03/20 13:14:01;;;;;;;29.13;21.58;;;11.70;61.10;;;;;;4988608;28;20046;-57
2022/03/20 13:16:29;;;;;;;28.25;20.98;;;11.60;60.10;;;;;;4986955;28;20119;-57
2022/03/20 13:18:55;;;;;;;29.10;21.35;;;11.60;60.80;;;;;;4972307;28;20136;-57
2022/03/20 13:21:21;;;;;;;28.33;21.50;;;11.60;60.80;;;;;;4991755;28;20034;-60